Time;durP1;ratioP1;P1;durP2;ratioP2;P2;SDS_P1;SDS_P2;PMS_P1;PMS_P2;Temp;Humidity;BMP_temperature;BMP_pressure;BME280_temperature;BME280_humidity;BME280_pressure;Samples;Min_cycle;Max_cycle;Signal;HPM_P1;HPM_P2
2023/05/29 00:01:12;;;;;;;;;11.67;10.33;;;;;19.14;54.11;101325.81;4992965;28;45559;-71
2023/05/29 00:03:37;;;;;;;;;7.67;7.67;;;;;19.17;54.27;101324.63;4977806;28;48575;-72
2023/05/29 00:06:03;;;;;;;;;11.00;9.33;;;;;19.18;54.09;101331.69;4977629;28;45408;-72
2023/05/29 00:08:28;;;;;;;;;11.33;11.33;;;;;19.24;53.89;101328.25;4993896;28;45432;-74
2023/05/29 00:10:54;;;;;;;;;13.33;12.00;;;;;19.26;53.82;101334.28;4992503;28;45543;-72
2023/05/29 00:13:19;;;;;;;;;11.33;10.33;;;;;19.27;53.57;101330.56;4980056;28;45715;-73
2023/05/29 00:15:46;;;;;;;;;12.33;11.67;;;;;18.93;53.56;101285.31;4990236;28;45436;-72
2023/05/29 00:18:11;;;;;;;;;11.67;10.00;;;;;19.19;53.73;101328.78;4991549;28;45486;-73
2023/05/29 00:20:37;;;;;;;;;11.67;9.67;;;;;19.28;53.86;101343.03;4974849;28;45533;-73
2023/05/29 00:23:04;;;;;;;;;11.67;11.67;;;;;18.87;53.68;101289.59;4994192;28;46715;-72
2023/05/29 00:25:29;;;;;;;;;7.33;6.00;;;;;19.13;53.92;101338.47;4976961;28;45561;-72
2023/05/29 00:27:55;;;;;;;;;10.67;10.67;;;;;19.09;53.73;101345.25;4977063;28;45216;-73
2023/05/29 00:30:20;;;;;;;;;14.67;11.67;;;;;19.04;54.07;101347.69;4975156;28;45385;-73
2023/05/29 00:32:46;;;;;;;;;11.67;10.67;;;;;19.01;54.28;101349.88;4959396;28;46234;-73
2023/05/29 00:35:11;;;;;;;;;10.00;10.00;;;;;19.05;54.00;101338.56;4985448;28;45471;-74
2023/05/29 00:37:37;;;;;;;;;10.33;10.33;;;;;18.92;53.78;101327.59;4988910;28;45541;-71
2023/05/29 00:40:03;;;;;;;;;12.67;10.33;;;;;18.98;54.11;101336.78;4992882;28;45567;-72
2023/05/29 00:42:29;;;;;;;;;11.33;11.33;;;;;19.01;53.88;101345.31;4985485;28;45282;-73
2023/05/29 00:44:54;;;;;;;;;9.33;9.33;;;;;19.01;54.07;101336.41;4957695;28;45612;-72
2023/05/29 00:47:20;;;;;;;;;12.00;11.00;;;;;18.95;53.81;101338.00;4975245;28;46040;-72
2023/05/29 00:49:45;;;;;;;;;12.33;10.67;;;;;18.95;54.17;101335.28;4966534;28;45472;-72
2023/05/29 00:52:12;;;;;;;;;9.67;9.67;;;;;18.84;54.16;101322.28;4984380;28;46289;-73
2023/05/29 00:54:38;;;;;;;;;10.67;10.67;;;;;18.58;53.88;101276.03;4978969;28;45444;-72
2023/05/29 00:57:05;;;;;;;;;9.00;8.67;;;;;18.75;54.11;101316.13;4977342;28;45315;-72
2023/05/29 00:59:33;;;;;;;;;12.33;11.67;;;;;18.65;54.05;101303.97;4978022;28;45514;-72
2023/05/29 01:02:00;;;;;;;;;9.67;9.67;;;;;18.64;54.28;101311.22;4983583;28;46093;-73
2023/05/29 01:04:27;;;;;;;;;11.00;8.00;;;;;18.65;54.26;101320.13;4982540;28;45523;-72
2023/05/29 01:06:52;;;;;;;;;13.00;12.00;;;;;18.70;54.19;101339.25;4985157;28;45574;-71
2023/05/29 01:09:17;;;;;;;;;8.33;5.67;;;;;18.67;54.13;101324.31;4976787;28;45368;-72
2023/05/29 01:12:13;;;;;;;;;12.67;11.33;;;;;18.68;54.46;101325.13;4992494;28;45545;-73
2023/05/29 01:14:41;;;;;;;;;8.00;7.00;;;;;18.54;54.71;101332.97;4982939;28;45503;-72
2023/05/29 01:17:17;;;;;;;;;14.00;13.33;;;;;18.47;54.82;101329.31;4976336;28;45337;-72
2023/05/29 01:20:08;;;;;;;;;11.67;11.67;;;;;18.36;55.41;101329.75;4958523;28;45551;-73
2023/05/29 01:23:03;;;;;;;;;9.33;9.33;;;;;18.22;55.69;101328.69;4990107;28;46098;-72
2023/05/29 01:25:50;;;;;;;;;12.33;10.67;;;;;18.24;55.48;101326.66;4976925;28;45527;-73
2023/05/29 01:28:19;;;;;;;;;10.67;10.67;;;;;18.26;55.04;101331.03;4959950;28;45280;-77
2023/05/29 01:30:45;;;;;;;;;12.67;10.33;;;;;18.17;55.55;101319.47;4977379;28;45447;-72
2023/05/29 01:33:11;;;;;;;;;14.33;13.00;;;;;18.14;55.56;101317.13;4968453;28;46370;-73
2023/05/29 01:35:36;;;;;;;;;14.00;10.33;;;;;18.17;55.88;101332.91;4988667;28;45397;-73
2023/05/29 01:38:02;;;;;;;;;14.00;12.33;;;;;18.16;55.83;101332.09;4993381;28;45198;-72
2023/05/29 01:40:28;;;;;;;;;13.67;11.67;;;;;18.07;55.84;101321.56;4967006;28;45267;-72
2023/05/29 01:42:53;;;;;;;;;10.67;10.67;;;;;18.19;55.75;101336.25;4993685;28;45432;-73
2023/05/29 01:45:19;;;;;;;;;12.67;10.67;;;;;18.12;55.79;101330.78;4996225;28;45366;-72
2023/05/29 01:47:45;;;;;;;;;9.33;8.33;;;;;17.93;56.10;101304.34;4971472;28;45252;-71
2023/05/29 01:50:14;;;;;;;;;11.67;10.33;;;;;17.97;56.64;101326.31;4963668;28;45377;-71
2023/05/29 01:52:41;;;;;;;;;9.67;8.33;;;;;18.02;56.30;101338.25;4986103;28;45865;-71
2023/05/29 01:55:07;;;;;;;;;12.67;10.33;;;;;18.01;56.33;101333.03;4990303;28;45392;-72
2023/05/29 01:57:34;;;;;;;;;11.33;10.00;;;;;18.03;56.29;101336.41;4973729;28;45349;-72
2023/05/29 02:00:00;;;;;;;;;10.33;8.67;;;;;18.05;56.03;101328.97;4977276;28;45495;-71
2023/05/29 02:02:26;;;;;;;;;13.33;11.33;;;;;18.05;56.11;101328.97;4961754;28;47818;-72
2023/05/29 02:04:51;;;;;;;;;11.67;10.67;;;;;17.64;56.10;101261.97;4969337;28;46427;-70
2023/05/29 02:07:19;;;;;;;;;9.33;9.33;;;;;17.96;56.28;101324.66;4987296;28;45491;-72
2023/05/29 02:09:44;;;;;;;;;12.00;11.67;;;;;17.88;56.10;101312.94;4974706;28;45603;-71
2023/05/29 02:12:10;;;;;;;;;11.00;10.00;;;;;17.85;56.45;101336.69;4989743;28;45552;-71
2023/05/29 02:14:35;;;;;;;;;9.33;9.33;;;;;17.82;56.74;101339.69;4987746;28;45343;-71
2023/05/29 02:17:01;;;;;;;;;12.33;9.33;;;;;17.82;56.75;101334.31;4986654;28;45927;-71
2023/05/29 02:19:27;;;;;;;;;10.00;10.00;;;;;17.77;56.59;101316.03;4993198;28;45326;-70
2023/05/29 02:21:52;;;;;;;;;11.00;10.00;;;;;17.21;56.91;101245.38;4974835;28;47456;-73
2023/05/29 02:24:17;;;;;;;;;7.00;4.67;;;;;17.59;57.01;101318.94;4987826;28;45666;-71
2023/05/29 02:26:43;;;;;;;;;13.00;12.00;;;;;17.42;57.98;101322.75;4983643;28;45529;-70
2023/05/29 02:29:08;;;;;;;;;15.67;12.33;;;;;17.39;57.80;101312.31;4982505;28;45631;-72
2023/05/29 02:31:34;;;;;;;;;11.33;10.00;;;;;17.28;57.44;101293.91;4987220;28;46523;-72
2023/05/29 02:33:59;;;;;;;;;16.33;12.67;;;;;17.52;57.99;101333.28;4984749;28;45369;-74
2023/05/29 02:36:25;;;;;;;;;11.67;11.33;;;;;17.55;58.00;101338.28;4987494;28;45838;-72
2023/05/29 02:38:50;;;;;;;;;11.33;11.33;;;;;17.39;58.24;101323.06;4975510;28;45334;-72
2023/05/29 02:41:16;;;;;;;;;9.00;8.00;;;;;17.25;58.27;101305.84;4988847;28;47918;-71
2023/05/29 02:43:41;;;;;;;;;14.33;9.33;;;;;17.17;58.45;101305.84;4977526;28;54841;-73
2023/05/29 02:46:06;;;;;;;;;9.67;8.67;;;;;17.11;58.84;101311.94;4985677;28;45960;-72
2023/05/29 02:48:32;;;;;;;;;11.67;10.00;;;;;16.99;59.36;101321.34;4967275;28;45464;-73
2023/05/29 02:50:57;;;;;;;;;12.00;12.00;;;;;17.05;59.28;101336.81;4971715;28;48391;-74
2023/05/29 02:53:22;;;;;;;;;9.67;9.67;;;;;17.13;59.27;101335.94;4967463;28;45231;-73
2023/05/29 02:55:48;;;;;;;;;10.00;9.33;;;;;17.11;59.45;101352.22;4982678;28;45644;-73
2023/05/29 02:58:16;;;;;;;;;12.33;11.00;;;;;17.07;59.33;101342.84;4982538;28;45474;-73
2023/05/29 03:00:41;;;;;;;;;11.00;9.67;;;;;16.99;59.77;101337.47;4981065;28;45664;-73
2023/05/29 03:03:06;;;;;;;;;13.67;10.33;;;;;17.00;59.85;101350.72;4989329;28;45246;-73
2023/05/29 03:05:32;;;;;;;;;13.67;10.67;;;;;16.88;60.22;101352.09;4988406;28;45348;-74
2023/05/29 03:07:57;;;;;;;;;12.00;9.00;;;;;16.80;60.28;101337.84;4979703;28;45385;-73
2023/05/29 03:10:22;;;;;;;;;14.33;10.33;;;;;16.95;59.97;101352.25;4961192;28;47831;-77
2023/05/29 03:12:48;;;;;;;;;11.67;11.67;;;;;16.96;60.01;101353.94;4982500;28;45427;-73
2023/05/29 03:15:14;;;;;;;;;14.33;11.67;;;;;16.93;59.84;101354.28;4965829;28;45947;-74
2023/05/29 03:17:39;;;;;;;;;14.33;10.33;;;;;16.76;60.34;101347.25;4978606;28;45535;-72
2023/05/29 03:20:06;;;;;;;;;12.33;10.33;;;;;16.85;60.41;101359.66;4960692;28;47365;-72
2023/05/29 03:22:32;;;;;;;;;12.67;11.33;;;;;16.63;60.84;101331.63;4979412;28;45613;-73
2023/05/29 03:24:57;;;;;;;;;10.33;10.33;;;;;16.56;61.35;101342.19;4985189;28;45807;-73
2023/05/29 03:27:23;;;;;;;;;11.67;8.67;;;;;16.63;61.35;101364.69;4978660;28;45398;-73
2023/05/29 03:29:48;;;;;;;;;13.00;10.67;;;;;16.57;61.69;101365.34;4961773;28;48024;-72
2023/05/29 03:32:14;;;;;;;;;17.67;15.00;;;;;16.47;61.66;101367.38;4958945;28;45358;-74
2023/05/29 03:34:39;;;;;;;;;13.33;11.67;;;;;16.46;61.36;101357.66;4966388;28;45373;-73
2023/05/29 03:37:05;;;;;;;;;16.33;12.00;;;;;16.35;62.25;101353.44;4989419;28;45489;-72
2023/05/29 03:39:30;;;;;;;;;10.67;9.33;;;;;16.31;62.57;101370.03;4985352;28;46598;-72
2023/05/29 03:41:56;;;;;;;;;12.00;11.33;;;;;16.20;63.05;101367.66;4968399;28;45609;-73
2023/05/29 03:44:21;;;;;;;;;9.67;9.00;;;;;16.24;62.92;101371.72;4978151;28;45782;-73
2023/05/29 03:46:46;;;;;;;;;11.67;10.67;;;;;16.17;62.91;101363.47;4977475;28;45616;-72
2023/05/29 03:49:12;;;;;;;;;13.33;9.33;;;;;16.35;62.60;101372.22;4980390;28;47710;-73
2023/05/29 03:51:37;;;;;;;;;11.33;11.33;;;;;16.31;62.62;101378.94;4968249;28;45551;-74
2023/05/29 03:54:03;;;;;;;;;15.33;14.33;;;;;16.32;62.63;101375.22;4979465;28;45253;-72
2023/05/29 03:56:28;;;;;;;;;14.33;11.67;;;;;16.33;62.52;101393.00;4985935;28;45443;-79
2023/05/29 03:58:54;;;;;;;;;8.00;6.00;;;;;16.36;62.82;101386.47;4987540;28;46394;-72
2023/05/29 04:01:20;;;;;;;;;15.67;14.00;;;;;16.33;62.73;101389.50;4987067;28;45618;-73
2023/05/29 04:03:46;;;;;;;;;15.67;12.33;;;;;16.15;62.83;101370.00;4975223;28;45489;-71
2023/05/29 04:06:11;;;;;;;;;13.67;12.67;;;;;16.19;63.21;101390.13;4990291;28;45544;-72
2023/05/29 04:08:36;;;;;;;;;12.67;11.33;;;;;16.08;63.64;101388.63;4988725;28;45593;-71
2023/05/29 04:11:03;;;;;;;;;14.33;12.67;;;;;15.76;63.31;101328.53;4975558;28;45770;-72
2023/05/29 04:13:28;;;;;;;;;12.33;12.33;;;;;16.13;63.82;101408.56;4959947;28;45645;-72
2023/05/29 04:15:54;;;;;;;;;14.33;14.00;;;;;16.05;63.79;101399.69;4977939;28;45474;-74
2023/05/29 04:18:20;;;;;;;;;16.33;12.67;;;;;15.69;63.82;101342.75;4977731;28;46583;-72
2023/05/29 04:20:47;;;;;;;;;14.00;12.00;;;;;16.07;63.93;101405.72;4959288;28;45518;-71
2023/05/29 04:23:12;;;;;;;;;13.67;12.33;;;;;15.71;63.73;101346.09;4989153;28;45461;-73
2023/05/29 04:25:38;;;;;;;;;13.33;11.33;;;;;16.07;63.64;101409.22;4985237;28;45448;-72
2023/05/29 04:28:03;;;;;;;;;15.33;13.00;;;;;16.05;63.36;101397.84;4979486;28;46167;-72
2023/05/29 04:30:29;;;;;;;;;17.00;10.67;;;;;16.17;63.67;101418.97;4991706;28;45538;-74
2023/05/29 04:32:54;;;;;;;;;16.00;13.33;;;;;15.98;63.94;101412.88;4986930;28;45358;-73
2023/05/29 04:35:21;;;;;;;;;15.33;13.33;;;;;15.89;64.40;101413.88;4976349;28;45467;-72
2023/05/29 04:37:47;;;;;;;;;6.33;6.33;;;;;15.81;64.26;101411.13;4992676;28;46564;-71
2023/05/29 04:40:17;;;;;;;;;13.33;13.33;;;;;15.91;64.51;101427.94;4986090;28;45552;-72
2023/05/29 04:42:44;;;;;;;;;14.00;14.00;;;;;15.94;64.48;101441.03;4976571;28;45357;-72
2023/05/29 04:45:13;;;;;;;;;17.67;14.33;;;;;15.85;64.75;101436.66;4985181;28;45541;-71
2023/05/29 04:47:42;;;;;;;;;16.33;13.33;;;;;15.88;64.73;101439.00;4983519;28;45854;-72
2023/05/29 04:50:12;;;;;;;;;16.67;14.67;;;;;15.88;64.69;101446.22;4984371;28;45468;-74
2023/05/29 04:52:38;;;;;;;;;16.33;13.67;;;;;15.50;64.43;101371.44;4983285;28;45490;-73
2023/05/29 04:55:04;;;;;;;;;17.00;15.67;;;;;15.89;64.79;101456.78;4980890;28;45500;-73
2023/05/29 04:57:30;;;;;;;;;14.33;13.67;;;;;15.80;65.08;101431.75;4991466;28;47312;-72
2023/05/29 04:59:55;;;;;;;;;21.67;15.00;;;;;15.92;64.73;101440.34;4991188;28;45543;-74
2023/05/29 05:02:21;;;;;;;;;18.33;17.00;;;;;16.04;64.22;101451.63;4976403;28;45594;-73
2023/05/29 05:04:46;;;;;;;;;12.33;12.33;;;;;15.97;64.15;101446.06;4985513;28;45293;-73
2023/05/29 05:07:12;;;;;;;;;27.00;19.67;;;;;15.97;64.36;101443.38;4990433;28;45634;-70
2023/05/29 05:09:38;;;;;;;;;15.67;11.67;;;;;15.93;64.59;101442.03;4995301;28;45336;-75
2023/05/29 05:12:03;;;;;;;;;10.67;10.00;;;;;16.05;64.24;101456.00;4984731;28;45468;-70
2023/05/29 05:14:28;;;;;;;;;19.00;16.67;;;;;16.02;64.01;101430.34;4986725;28;45303;-72
2023/05/29 05:16:54;;;;;;;;;17.00;17.00;;;;;16.21;63.94;101447.13;4988494;28;46520;-73
2023/05/29 05:19:22;;;;;;;;;22.67;19.67;;;;;16.20;63.66;101453.50;4962194;28;45444;-72
2023/05/29 05:21:47;;;;;;;;;21.00;15.67;;;;;16.25;63.53;101457.41;4958789;28;45646;-71
2023/05/29 05:24:13;;;;;;;;;15.00;15.00;;;;;16.04;63.99;101449.78;4985943;28;45231;-73
2023/05/29 05:26:38;;;;;;;;;17.00;13.67;;;;;16.11;64.07;101461.53;4975247;28;48395;-75
2023/05/29 05:29:03;;;;;;;;;17.67;13.67;;;;;16.29;63.42;101465.97;4974987;28;45608;-74
2023/05/29 05:31:28;;;;;;;;;26.33;18.00;;;;;16.22;63.20;101448.81;4995487;28;55368;-72
2023/05/29 05:33:54;;;;;;;;;20.33;19.00;;;;;16.06;63.61;101426.34;4996342;28;45465;-70
2023/05/29 05:36:20;;;;;;;;;17.33;15.33;;;;;16.17;63.61;101453.84;4970061;28;46986;-71
2023/05/29 05:38:45;;;;;;;;;17.33;17.33;;;;;16.20;63.70;101470.44;4986446;28;45510;-71
2023/05/29 05:41:11;;;;;;;;;14.00;11.33;;;;;16.26;63.44;101466.28;4981671;28;45648;-71
2023/05/29 05:43:36;;;;;;;;;19.67;18.00;;;;;16.27;63.63;101481.38;4969869;28;45679;-72
2023/05/29 05:46:02;;;;;;;;;16.33;13.00;;;;;16.27;63.73;101465.28;4994248;28;48723;-71
2023/05/29 05:48:27;;;;;;;;;22.00;21.33;;;;;16.38;62.76;101464.97;4961242;28;45737;-72
2023/05/29 05:50:52;;;;;;;;;19.33;17.33;;;;;16.40;62.69;101465.63;4979798;28;45471;-70
2023/05/29 05:53:18;;;;;;;;;17.00;10.67;;;;;16.59;62.48;101489.50;4978246;28;45453;-71
2023/05/29 05:55:43;;;;;;;;;15.00;11.67;;;;;16.69;62.51;101471.44;4957964;28;47846;-74
2023/05/29 05:58:09;;;;;;;;;19.67;18.33;;;;;17.26;60.40;101455.31;4994133;28;45336;-71
2023/05/29 06:00:34;;;;;;;;;17.67;15.00;;;;;17.56;58.80;101423.31;4989662;28;45345;-75
2023/05/29 06:03:02;;;;;;;;;21.00;18.33;;;;;18.34;57.08;101473.63;4960428;28;45597;-71
2023/05/29 06:05:29;;;;;;;;;19.33;16.33;;;;;19.01;55.88;101487.31;4976119;28;45408;-73
2023/05/29 06:07:54;;;;;;;;;15.67;14.33;;;;;19.65;53.83;101485.06;4977320;28;45488;-72
2023/05/29 06:10:20;;;;;;;;;20.67;16.33;;;;;20.12;52.35;101471.16;4986995;28;45476;-71
2023/05/29 06:12:45;;;;;;;;;17.67;14.33;;;;;20.71;50.46;101481.00;4979100;28;45452;-72
2023/05/29 06:15:10;;;;;;;;;20.67;16.67;;;;;20.83;50.06;101480.31;4966672;28;47667;-71
2023/05/29 06:17:36;;;;;;;;;17.33;16.33;;;;;21.06;48.84;101476.56;4958128;28;45489;-71
2023/05/29 06:20:01;;;;;;;;;17.00;16.67;;;;;20.98;48.36;101482.09;4977928;28;45502;-70
2023/05/29 06:22:27;;;;;;;;;19.67;13.67;;;;;21.35;48.43;101470.16;4988572;28;45572;-71
2023/05/29 06:24:52;;;;;;;;;16.67;14.67;;;;;21.94;47.07;101489.47;4989424;28;46288;-72
2023/05/29 06:27:18;;;;;;;;;18.33;16.00;;;;;22.37;45.72;101492.78;4979580;28;45525;-71
2023/05/29 06:29:43;;;;;;;;;17.33;16.00;;;;;22.88;45.19;101486.91;4983483;28;45330;-71
2023/05/29 06:32:09;;;;;;;;;17.67;16.67;;;;;22.89;43.48;101475.03;4982930;28;45400;-71
2023/05/29 06:34:34;;;;;;;;;17.33;14.00;;;;;22.79;43.78;101479.97;4979990;28;45863;-73
2023/05/29 06:37:00;;;;;;;;;15.00;14.00;;;;;22.84;43.66;101473.97;4982315;28;52861;-71
2023/05/29 06:39:25;;;;;;;;;16.00;16.00;;;;;23.38;42.49;101498.16;4968897;28;45342;-74
2023/05/29 06:41:51;;;;;;;;;19.67;15.00;;;;;23.81;42.58;101495.81;4963264;28;45422;-73
2023/05/29 06:44:16;;;;;;;;;21.00;18.33;;;;;24.19;41.04;101489.63;4976947;28;48032;-71
2023/05/29 06:46:41;;;;;;;;;16.00;14.33;;;;;24.60;40.39;101504.72;4974269;28;45268;-73
2023/05/29 06:49:07;;;;;;;;;15.67;13.00;;;;;24.65;40.22;101504.94;4982875;28;45547;-72
2023/05/29 06:51:33;;;;;;;;;18.67;16.67;;;;;24.79;39.64;101501.06;4973954;28;45248;-76
2023/05/29 06:53:59;;;;;;;;;16.67;14.00;;;;;25.09;39.71;101506.75;4965132;28;48815;-75
2023/05/29 06:56:25;;;;;;;;;15.67;14.67;;;;;25.51;38.25;101502.38;4969251;28;45536;-73
2023/05/29 06:58:51;;;;;;;;;7.67;7.00;;;;;25.27;37.95;101463.25;4980698;28;45609;-73
2023/05/29 07:01:16;;;;;;;;;14.67;12.00;;;;;25.34;38.01;101490.41;4985325;28;45530;-73
2023/05/29 07:03:42;;;;;;;;;20.33;15.00;;;;;25.31;38.30;101458.19;4981488;28;46035;-72
2023/05/29 07:06:08;;;;;;;;;16.67;14.00;;;;;25.75;37.48;101498.81;4985564;28;45762;-72
2023/05/29 07:08:33;;;;;;;;;20.67;14.67;;;;;25.76;36.90;101495.03;4979516;28;45356;-70
2023/05/29 07:10:59;;;;;;;;;14.33;13.67;;;;;25.85;37.11;101508.38;4976767;28;45393;-73
2023/05/29 07:13:25;;;;;;;;;13.67;13.33;;;;;25.83;37.30;101488.66;4966304;28;47422;-71
2023/05/29 07:15:50;;;;;;;;;16.67;15.00;;;;;26.18;36.13;101488.88;4982216;28;46726;-74
2023/05/29 07:18:16;;;;;;;;;15.67;15.67;;;;;26.25;36.88;101493.22;4979353;28;45444;-71
2023/05/29 07:20:41;;;;;;;;;13.33;11.33;;;;;26.42;35.88;101500.75;4989521;28;45497;-75
2023/05/29 07:23:06;;;;;;;;;12.67;12.67;;;;;26.46;36.27;101497.38;4964247;28;47593;-73
2023/05/29 07:25:32;;;;;;;;;12.67;12.33;;;;;26.55;35.14;101476.88;4983010;28;45447;-71
2023/05/29 07:27:58;;;;;;;;;14.67;14.33;;;;;26.97;35.02;101499.53;4963454;28;45237;-74
2023/05/29 07:30:23;;;;;;;;;12.67;12.33;;;;;27.04;34.60;101493.19;4978248;28;45538;-74
2023/05/29 07:32:49;;;;;;;;;16.67;13.00;;;;;27.29;34.21;101512.91;4960200;28;48619;-71
2023/05/29 07:35:14;;;;;;;;;11.67;11.00;;;;;27.31;34.25;101486.19;4976923;28;45237;-73
2023/05/29 07:37:40;;;;;;;;;13.00;11.00;;;;;27.35;34.17;101503.75;4976518;28;45288;-74
2023/05/29 07:40:06;;;;;;;;;13.33;10.33;;;;;27.53;33.96;101514.56;4959839;28;45275;-74
2023/05/29 07:42:32;;;;;;;;;19.00;16.33;;;;;27.66;33.66;101472.56;4974666;28;46728;-72
2023/05/29 07:44:58;;;;;;;;;16.33;14.33;;;;;28.14;33.01;101507.75;4976735;28;45507;-72
2023/05/29 07:47:23;;;;;;;;;17.33;14.33;;;;;28.07;32.60;101509.78;4981374;28;45389;-71
2023/05/29 07:49:49;;;;;;;;;17.33;15.67;;;;;28.22;32.59;101500.22;4976860;28;45274;-72
2023/05/29 07:52:15;;;;;;;;;16.33;14.00;;;;;28.33;32.04;101502.97;4974313;28;48926;-73
2023/05/29 07:54:40;;;;;;;;;11.67;11.00;;;;;28.30;32.58;101499.88;4980237;28;45727;-78
2023/05/29 07:57:12;;;;;;;;;17.67;17.00;;;;;28.33;32.06;101508.44;4954682;28;45429;-73
2023/05/29 07:59:40;;;;;;;;;15.33;14.00;;;;;28.66;32.39;101512.34;4977201;28;45422;-75
2023/05/29 08:02:06;;;;;;;;;17.00;12.67;;;;;28.85;31.75;101505.56;4990347;28;48473;-72
2023/05/29 08:04:32;;;;;;;;;20.00;15.00;;;;;29.05;31.75;101500.47;4967261;28;45536;-73
2023/05/29 08:06:59;;;;;;;;;13.67;11.33;;;;;29.18;31.07;101493.81;4988237;28;45445;-75
2023/05/29 08:09:24;;;;;;;;;15.00;14.33;;;;;29.32;30.77;101500.63;4982366;28;45457;-72
2023/05/29 08:11:49;;;;;;;;;11.67;11.67;;;;;29.43;31.45;101500.78;4985468;28;45875;-73
2023/05/29 08:14:15;;;;;;;;;13.00;11.00;;;;;29.69;30.55;101511.06;4973355;28;45780;-72
2023/05/29 08:16:41;;;;;;;;;14.67;10.00;;;;;29.57;30.16;101513.09;4973307;28;45283;-75
2023/05/29 08:19:07;;;;;;;;;11.33;10.00;;;;;29.30;30.13;101507.44;4963415;28;45688;-74
2023/05/29 08:21:32;;;;;;;;;16.67;14.33;;;;;28.94;31.59;101459.47;4986489;28;45495;-74
2023/05/29 08:23:58;;;;;;;;;16.00;15.00;;;;;29.29;30.46;101500.31;4981661;28;45416;-75
2023/05/29 08:26:24;;;;;;;;;17.67;17.67;;;;;29.11;30.74;101487.69;4987648;28;45604;-74
2023/05/29 08:28:50;;;;;;;;;19.00;13.67;;;;;28.81;31.40;101498.09;4987046;28;45544;-76
2023/05/29 08:31:16;;;;;;;;;18.00;15.00;;;;;27.53;31.94;101405.31;4978922;28;46372;-72
2023/05/29 08:33:42;;;;;;;;;11.00;10.00;;;;;28.12;32.76;101515.34;4968443;28;45933;-77
2023/05/29 08:36:08;;;;;;;;;12.00;12.00;;;;;28.36;32.26;101491.53;4970967;28;45394;-73
2023/05/29 08:38:35;;;;;;;;;14.00;13.00;;;;;28.76;31.89;101518.81;4967370;28;45563;-71
2023/05/29 08:41:01;;;;;;;;;17.67;16.67;;;;;28.79;31.55;101517.50;4960503;28;47539;-75
2023/05/29 08:43:31;;;;;;;;;16.33;15.00;;;;;28.60;31.13;101505.09;4979593;28;45555;-74
2023/05/29 08:46:00;;;;;;;;;15.67;15.67;;;;;28.25;31.90;101510.69;4976422;28;45346;-73
2023/05/29 08:48:28;;;;;;;;;11.67;11.33;;;;;27.87;32.66;101465.63;4960376;28;45572;-73
2023/05/29 08:50:55;;;;;;;;;15.33;14.33;;;;;28.12;32.57;101488.00;4965843;28;47865;-74
2023/05/29 08:53:21;;;;;;;;;14.00;14.00;;;;;28.78;31.67;101516.66;4977815;28;45448;-74
2023/05/29 08:55:50;;;;;;;;;14.00;12.67;;;;;28.72;30.88;101440.19;4978345;28;45440;-82
2023/05/29 08:58:16;;;;;;;;;17.67;16.33;;;;;29.46;30.00;101516.78;4971772;28;45548;-73
2023/05/29 09:00:42;;;;;;;;;14.33;13.33;;;;;29.70;30.50;101511.91;4970823;28;49679;-75
2023/05/29 09:03:07;;;;;;;;;16.00;16.00;;;;;29.37;29.50;101497.13;4961701;28;46380;-73
2023/05/29 09:05:39;;;;;;;;;18.67;17.33;;;;;28.88;30.64;101517.97;4987687;28;45269;-72
2023/05/29 09:08:04;;;;;;;;;17.00;15.00;;;;;28.68;30.98;101493.78;4978010;28;45456;-71
2023/05/29 09:10:30;;;;;;;;;16.00;15.00;;;;;29.25;30.82;101521.91;4977476;28;46575;-75
2023/05/29 09:12:55;;;;;;;;;19.67;15.00;;;;;29.75;29.96;101496.34;4976662;28;45462;-78
2023/05/29 09:15:22;;;;;;;;;14.00;14.00;;;;;30.47;29.39;101518.13;4956722;28;46959;-79
2023/05/29 09:17:57;;;;;;;;;14.33;12.67;;;;;30.90;27.75;101474.38;4983744;28;45523;-81
2023/05/29 09:20:23;;;;;;;;;14.67;14.67;;;;;31.20;27.52;101493.03;4982145;28;45436;-77
2023/05/29 09:23:08;;;;;;;;;13.33;13.33;;;;;32.04;26.28;101504.84;4976280;28;45612;-79
2023/05/29 09:25:44;;;;;;;;;13.00;11.67;;;;;32.36;26.01;101503.88;4972515;28;45504;-78
2023/05/29 09:28:10;;;;;;;;;15.67;14.67;;;;;32.10;26.47;101508.44;4952041;28;45505;-77
2023/05/29 09:30:35;;;;;;;;;13.33;10.33;;;;;32.33;25.90;101519.00;4975054;28;46853;-78
2023/05/29 09:33:02;;;;;;;;;19.00;17.00;;;;;32.26;26.17;101518.44;4958702;28;45575;-78
2023/05/29 09:35:42;;;;;;;;;16.33;16.33;;;;;32.67;25.61;101513.03;4976875;28;46748;-77
2023/05/29 09:38:11;;;;;;;;;13.67;12.33;;;;;32.86;25.04;101511.44;4980306;28;45694;-79
2023/05/29 09:41:00;;;;;;;;;19.00;18.67;;;;;32.89;25.49;101510.06;4980855;28;47987;-78
2023/05/29 09:43:25;;;;;;;;;18.00;15.33;;;;;32.60;25.22;101479.41;4962872;28;45554;-77
2023/05/29 09:45:51;;;;;;;;;14.33;14.33;;;;;32.95;25.12;101498.75;4985764;28;45233;-78
2023/05/29 09:48:18;;;;;;;;;13.67;13.67;;;;;33.47;24.79;101508.69;4981888;28;45355;-76
2023/05/29 09:50:47;;;;;;;;;17.33;16.00;;;;;33.54;24.38;101492.66;4955083;28;46845;-80
2023/05/29 09:53:24;;;;;;;;;17.00;16.67;;;;;33.74;24.49;101480.75;4953663;28;45538;-78
2023/05/29 09:55:50;;;;;;;;;19.67;18.00;;;;;33.68;24.21;101489.31;4982510;28;45470;-73
2023/05/29 09:58:17;;;;;;;;;16.33;16.33;;;;;32.84;24.73;101375.94;4975467;28;45643;-72
2023/05/29 10:00:44;;;;;;;;;16.67;16.67;;;;;33.22;25.11;101506.72;4960454;28;47992;-75
2023/05/29 10:03:11;;;;;;;;;21.67;18.00;;;;;32.15;26.13;101494.69;4976460;28;45531;-75
2023/05/29 10:05:38;;;;;;;;;14.33;14.33;;;;;31.36;27.62;101459.06;4968046;28;46242;-80
2023/05/29 10:08:08;;;;;;;;;19.00;19.00;;;;;29.66;28.17;101358.13;4970966;28;45490;-79
2023/05/29 10:10:35;;;;;;;;;14.00;13.67;;;;;29.35;30.28;101515.72;4980123;28;46664;-77
2023/05/29 10:13:03;;;;;;;;;14.00;13.00;;;;;28.70;30.75;101481.50;4983651;28;45686;-75
2023/05/29 10:15:32;;;;;;;;;23.33;23.00;;;;;28.22;32.23;101505.69;4959512;28;45457;-76
2023/05/29 10:18:04;;;;;;;;;18.00;17.00;;;;;27.47;33.06;101485.47;4977876;28;45290;-76
2023/05/29 10:20:31;;;;;;;;;21.00;20.00;;;;;26.39;34.49;101425.72;4977344;28;46474;-78
2023/05/29 10:23:01;;;;;;;;;21.67;18.67;;;;;26.19;34.96;101460.56;4976614;28;45656;-73
2023/05/29 10:25:30;;;;;;;;;20.67;20.33;;;;;26.10;35.49;101498.22;4986131;28;45496;-75
2023/05/29 10:27:57;;;;;;;;;23.67;20.33;;;;;25.93;36.23;101491.72;4966194;28;45616;-82
2023/05/29 10:30:45;;;;;;;;;22.00;19.67;;;;;25.74;36.68;101482.69;4978826;28;46879;-76
2023/05/29 10:33:27;;;;;;;;;20.33;19.00;;;;;25.33;37.73;101499.63;4983764;28;45318;-75
2023/05/29 10:36:18;;;;;;;;;20.67;20.00;;;;;24.80;38.04;101500.00;4983281;28;45792;-76
2023/05/29 10:38:47;;;;;;;;;24.67;19.00;;;;;24.58;38.76;101489.47;4967873;28;45415;-77
2023/05/29 10:41:27;;;;;;;;;27.33;25.67;;;;;24.58;38.89;101486.75;4968621;28;46395;-78
2023/05/29 10:43:56;;;;;;;;;30.00;28.33;;;;;24.21;40.35;101504.66;4963567;28;45429;-76
2023/05/29 10:46:44;;;;;;;;;23.67;19.00;;;;;24.13;39.89;101498.66;4965020;28;46276;-76
2023/05/29 10:49:17;;;;;;;;;26.33;22.33;;;;;24.14;40.12;101495.72;4971589;28;45294;-75
2023/05/29 10:51:43;;;;;;;;;24.00;22.33;;;;;24.07;40.82;101491.38;4962559;28;46303;-74
2023/05/29 10:54:08;;;;;;;;;27.00;24.33;;;;;24.01;40.75;101484.06;4979630;28;45378;-75
2023/05/29 10:56:34;;;;;;;;;18.67;18.00;;;;;23.85;41.05;101488.94;4975800;28;45523;-77
2023/05/29 10:59:03;;;;;;;;;23.33;22.00;;;;;23.51;41.48;101453.91;4980869;28;45584;-77
2023/05/29 11:01:30;;;;;;;;;31.33;26.67;;;;;23.82;42.15;101494.78;4969272;28;48404;-76
2023/05/29 11:04:17;;;;;;;;;25.00;21.00;;;;;23.87;41.65;101492.28;4971891;28;45970;-76
2023/05/29 11:06:44;;;;;;;;;24.00;24.00;;;;;23.48;41.92;101457.88;4991718;28;45456;-78
2023/05/29 11:09:31;;;;;;;;;24.00;21.00;;;;;23.67;42.17;101489.63;4990932;28;45563;-78
2023/05/29 11:12:10;;;;;;;;;30.67;26.00;;;;;23.37;42.79;101466.66;4997508;28;45545;-80